This is the latest recevied weather packets stored in our database for station/object EA1PVC-10. If no packets are shown the sender has not sent any weather packets the latest 1 day(s).
| Time | Temp. | Humidity | Pressure | Rain* | Wind** | Luminosity | Snow |
|---|---|---|---|---|---|---|---|
| 1778096974 | 17.22° C | 40% | 917.1 hPa | - | - | - | - |
| 1778093374 | 18.89° C | 38% | 917.1 hPa | - | - | - | - |
| 1778092474 | 19.44° C | 33% | 917 hPa | - | - | - | - |
| 1778091574 | 20.56° C | 32% | 916.8 hPa | - | - | - | - |
| 1778090674 | 21.11° C | 30% | 916.9 hPa | - | - | - | - |
| 1778089774 | 22.78° C | 27% | 917 hPa | - | - | - | - |
| 1778088874 | 22.22° C | 22% | 910.4 hPa | - | - | - | - |
| 1778087962 | 45.56° C | 10% | 917.1 hPa | - | - | - | - |
| 1778086162 | 43.89° C | 11% | 917.3 hPa | - | - | - | - |
| 1778084362 | 41.67° C | 12% | 917.4 hPa | - | - | - | - |
| 1778083462 | 41.67° C | 13% | 918.3 hPa | - | - | - | - |
| 1778076250 | 21.67° C | 32% | 918.9 hPa | - | - | - | - |
| 1778075350 | 26.67° C | 27% | 919 hPa | - | - | - | - |
| 1778074450 | 24.44° C | 30% | 919.2 hPa | - | - | - | - |
| 1778073550 | 19.44° C | 34% | 919.2 hPa | - | - | - | - |
| 1778066338 | 18.89° C | 43% | 920.1 hPa | - | - | - | - |
| 1778064538 | 16.67° C | 44% | 920.2 hPa | - | - | - | - |
| 1778056437 | 6.11° C | 72% | 912.9 hPa | - | - | - | - |
| 1778055526 | 11.11° C | 76% | 920.4 hPa | - | - | - | - |
| 1778054626 | 10.56° C | 78% | 920.4 hPa | - | - | - | - |
| 1778053726 | 10° C | 78% | 920.3 hPa | - | - | - | - |
| 1778046525 | 7.78° C | 87% | 920.1 hPa | - | - | - | - |
| 1778045628 | 2.22° C | 88% | 912.8 hPa | - | - | - | - |
| 1778044714 | 7.78° C | 89% | 920 hPa | - | - | - | - |
| 1778039313 | 6.67° C | 89% | 920.4 hPa | - | - | - | - |
* Rain since midnight (hover to see other rain measurements)
** Current wind speed in m/s (hover to see current wind gust speed)